Time;durP1;ratioP1;P1;durP2;ratioP2;P2;SDS_P1;SDS_P2;PMS_P1;PMS_P2;Temp;Humidity;BMP_temperature;BMP_pressure;BME280_temperature;BME280_humidity;BME280_pressure;Samples;Min_cycle;Max_cycle;Signal;HPM_P1;HPM_P2
2023/02/19 00:01:37;;;;;;;5.13;3.20;;;8.00;64.10;;;;;;5075844;28;20093;-64
2023/02/19 00:04:08;;;;;;;6.00;3.30;;;8.00;64.10;;;;;;5074784;28;20068;-63
2023/02/19 00:06:34;;;;;;;4.80;3.13;;;7.90;64.10;;;;;;5090174;28;20447;-64
2023/02/19 00:09:00;;;;;;;4.63;3.25;;;7.90;64.20;;;;;;5090943;28;20048;-65
2023/02/19 00:11:29;;;;;;;3.35;3.05;;;8.00;64.30;;;;;;5091699;28;20024;-64
2023/02/19 00:13:57;;;;;;;4.72;3.20;;;8.00;64.10;;;;;;5089979;28;20032;-65
2023/02/19 00:16:33;;;;;;;6.10;3.33;;;8.00;64.10;;;;;;5076361;28;20037;-63
2023/02/19 00:19:00;;;;;;;3.15;2.53;;;8.00;64.20;;;;;;5082198;28;20024;-64
2023/02/19 00:21:26;;;;;;;3.63;2.88;;;8.00;64.30;;;;;;5079538;28;20047;-63
2023/02/19 00:23:55;;;;;;;5.38;3.45;;;8.00;64.30;;;;;;5082997;28;20064;-63
2023/02/19 00:26:21;;;;;;;5.78;3.17;;;8.00;64.30;;;;;;5088914;28;20474;-65
2023/02/19 00:28:48;;;;;;;3.85;3.10;;;8.00;64.30;;;;;;5085247;28;20032;-65
2023/02/19 00:31:24;;;;;;;5.28;3.10;;;8.00;64.20;;;;;;5089736;28;20020;-64
2023/02/19 00:33:55;;;;;;;4.40;3.13;;;8.00;64.30;;;;;;5089651;28;20032;-64
2023/02/19 00:36:22;;;;;;;4.57;3.00;;;7.90;64.30;;;;;;5089623;28;20032;-64
2023/02/19 00:38:48;;;;;;;6.20;3.35;;;7.90;64.30;;;;;;5086685;28;20028;-64
2023/02/19 00:41:17;;;;;;;5.50;3.25;;;7.90;64.30;;;;;;5084371;28;20024;-62
2023/02/19 00:43:47;;;;;;;6.18;3.10;;;7.90;64.30;;;;;;5082938;28;20052;-62
2023/02/19 00:46:14;;;;;;;3.88;3.05;;;7.90;64.30;;;;;;5083782;28;20050;-63
2023/02/19 00:48:39;;;;;;;5.05;3.47;;;7.90;64.40;;;;;;5078281;28;20086;-63
2023/02/19 00:51:05;;;;;;;5.25;3.13;;;7.90;64.50;;;;;;5078158;28;20024;-65
2023/02/19 00:53:31;;;;;;;4.28;2.85;;;7.80;64.40;;;;;;5088497;28;20039;-64
2023/02/19 00:55:56;;;;;;;4.32;3.17;;;7.80;64.30;;;;;;5085359;28;20054;-64
2023/02/19 00:58:22;;;;;;;4.60;3.30;;;7.80;64.50;;;;;;5089353;28;20034;-63
2023/02/19 01:00:48;;;;;;;4.70;3.47;;;7.80;64.50;;;;;;5085368;28;20020;-64
2023/02/19 01:03:13;;;;;;;3.95;2.88;;;7.90;64.60;;;;;;5081090;28;20024;-63
2023/02/19 01:05:39;;;;;;;5.15;2.90;;;7.90;64.60;;;;;;5082755;28;20089;-64
2023/02/19 01:08:04;;;;;;;4.22;3.08;;;7.90;64.60;;;;;;5082306;28;20165;-60
2023/02/19 01:10:30;;;;;;;3.30;2.80;;;7.90;64.70;;;;;;5090294;28;20355;-63
2023/02/19 01:12:56;;;;;;;4.75;3.33;;;7.90;64.60;;;;;;5081936;28;20070;-64
2023/02/19 01:15:21;;;;;;;5.03;3.58;;;7.90;64.50;;;;;;5076898;28;20233;-65
2023/02/19 01:17:47;;;;;;;5.22;3.72;;;7.90;64.50;;;;;;5079330;28;20025;-64
2023/02/19 01:20:13;;;;;;;5.03;3.40;;;7.80;64.50;;;;;;5091580;28;20045;-65
2023/02/19 01:22:38;;;;;;;6.13;3.33;;;7.80;64.60;;;;;;5091046;28;20421;-63
2023/02/19 01:25:04;;;;;;;4.78;3.28;;;7.80;64.70;;;;;;5073609;28;20035;-63
2023/02/19 01:27:30;;;;;;;5.68;3.20;;;7.80;64.70;;;;;;5083714;28;20050;-64
2023/02/19 01:29:55;;;;;;;5.22;3.50;;;7.80;64.80;;;;;;5078826;28;20033;-65
2023/02/19 01:32:21;;;;;;;5.47;3.60;;;7.70;64.80;;;;;;5080782;28;20490;-63
2023/02/19 01:34:47;;;;;;;4.85;3.42;;;7.70;65.50;;;;;;5075285;28;20034;-64
2023/02/19 01:37:12;;;;;;;5.72;3.58;;;7.70;65.10;;;;;;5072951;28;20026;-64
2023/02/19 01:39:38;;;;;;;4.80;3.05;;;7.70;65.10;;;;;;5076759;28;20028;-64
2023/02/19 01:42:09;;;;;;;5.25;3.65;;;7.70;65.10;;;;;;5087218;28;20035;-64
2023/02/19 01:44:35;;;;;;;5.40;3.42;;;7.70;65.10;;;;;;5085618;28;20458;-65
2023/02/19 01:47:00;;;;;;;6.80;4.07;;;7.70;65.10;;;;;;5085411;28;20024;-65
2023/02/19 01:49:30;;;;;;;4.97;3.65;;;7.80;65.10;;;;;;5085101;28;20082;-63
2023/02/19 01:51:59;;;;;;;8.77;3.90;;;7.70;64.90;;;;;;5080692;28;20032;-64
2023/02/19 01:54:29;;;;;;;5.45;3.50;;;7.80;64.90;;;;;;5083886;28;20519;-65
2023/02/19 01:56:55;;;;;;;5.68;3.67;;;7.70;64.90;;;;;;5084498;28;20370;-64
2023/02/19 01:59:21;;;;;;;4.60;3.30;;;7.70;65.10;;;;;;5086911;28;20115;-64
2023/02/19 02:01:48;;;;;;;6.20;3.90;;;7.70;65.00;;;;;;5079347;28;20506;-65
2023/02/19 02:04:15;;;;;;;5.57;4.00;;;7.70;65.10;;;;;;5086127;28;20056;-65
2023/02/19 02:06:49;;;;;;;6.13;3.65;;;7.70;65.10;;;;;;5076710;28;20073;-64
2023/02/19 02:12:02;;;;;;;5.18;4.05;;;7.60;65.10;;;;;;5078990;28;20035;-65
2023/02/19 02:14:32;;;;;;;6.10;3.55;;;7.60;65.20;;;;;;5074973;28;20032;-63
2023/02/19 02:17:14;;;;;;;5.50;3.78;;;7.60;65.10;;;;;;5079360;28;20056;-62
2023/02/19 02:20:14;;;;;;;5.68;3.72;;;7.60;65.20;;;;;;5079992;28;20020;-63
2023/02/19 02:23:13;;;;;;;3.50;3.20;;;7.60;65.30;;;;;;5087651;28;20036;-63
2023/02/19 02:25:48;;;;;;;5.78;3.42;;;7.60;65.50;;;;;;5079195;28;20036;-63
2023/02/19 02:28:36;;;;;;;6.35;3.47;;;7.60;65.40;;;;;;5091755;28;20115;-64
2023/02/19 02:31:12;;;;;;;5.10;3.40;;;7.60;65.40;;;;;;5073877;28;20024;-64
2023/02/19 02:33:53;;;;;;;4.47;3.50;;;7.60;65.50;;;;;;5083786;28;20131;-64
2023/02/19 02:36:27;;;;;;;6.70;3.93;;;7.60;65.40;;;;;;5073000;28;20024;-65
2023/02/19 02:38:55;;;;;;;4.25;3.35;;;7.60;65.50;;;;;;5079412;28;20025;-65
2023/02/19 02:41:22;;;;;;;6.13;3.50;;;7.60;65.60;;;;;;5079397;28;20029;-65
2023/02/19 02:43:47;;;;;;;7.20;4.22;;;7.60;65.70;;;;;;5082284;28;20032;-65
2023/02/19 02:46:26;;;;;;;6.63;3.55;;;7.60;65.50;;;;;;5077318;28;20055;-65
2023/02/19 02:48:56;;;;;;;4.72;3.47;;;7.60;65.40;;;;;;5080766;28;20027;-65
2023/02/19 02:51:26;;;;;;;5.00;3.47;;;7.60;65.50;;;;;;5090415;28;20402;-65
2023/02/19 02:56:53;;;;;;;5.28;3.50;;;7.60;65.50;;;;;;5079367;28;20027;-64
2023/02/19 02:59:23;;;;;;;5.43;3.65;;;7.60;65.60;;;;;;5080032;28;20401;-64
2023/02/19 03:02:10;;;;;;;5.95;3.53;;;7.60;65.70;;;;;;5093125;28;20116;-64
2023/02/19 03:08:12;;;;;;;4.82;3.60;;;7.60;65.70;;;;;;5075241;28;20225;-62
2023/02/19 03:10:43;;;;;;;5.00;3.42;;;7.50;65.50;;;;;;5074600;28;20523;-61
2023/02/19 03:19:28;;;;;;;6.57;3.40;;;7.40;65.90;;;;;;5082189;28;20513;-63
2023/02/19 03:22:16;;;;;;;6.75;3.72;;;7.40;66.00;;;;;;5084533;28;20037;-63
2023/02/19 03:27:36;;;;;;;5.07;3.38;;;7.40;66.00;;;;;;5082733;28;20496;-60
2023/02/19 03:30:08;;;;;;;4.70;3.60;;;7.40;65.90;;;;;;5088846;28;20072;-61
2023/02/19 03:32:42;;;;;;;5.43;3.50;;;7.40;65.90;;;;;;5090340;28;20119;-61
2023/02/19 03:35:24;;;;;;;5.35;3.50;;;7.50;65.90;;;;;;5093395;28;20032;-61
2023/02/19 03:37:54;;;;;;;5.05;3.45;;;7.50;65.80;;;;;;5081071;28;20028;-60
2023/02/19 03:40:23;;;;;;;4.43;3.50;;;7.50;65.90;;;;;;5084910;28;20032;-61
2023/02/19 03:43:18;;;;;;;6.40;3.88;;;7.50;65.90;;;;;;5084740;28;20033;-61
2023/02/19 03:46:05;;;;;;;5.32;3.60;;;7.50;65.90;;;;;;5088707;28;20406;-59
2023/02/19 03:48:35;;;;;;;5.75;4.05;;;7.50;65.80;;;;;;5085623;28;20471;-61
2023/02/19 03:51:21;;;;;;;5.57;3.72;;;7.50;65.90;;;;;;5076849;28;20017;-61
2023/02/19 03:53:57;;;;;;;5.43;3.85;;;7.50;65.90;;;;;;5088783;28;20020;-61
2023/02/19 03:56:34;;;;;;;6.10;3.80;;;7.50;65.90;;;;;;5084713;28;20104;-61
2023/02/19 03:59:09;;;;;;;4.97;3.55;;;7.50;66.00;;;;;;5091332;28;20039;-60
2023/02/19 04:01:42;;;;;;;3.92;3.15;;;7.50;66.10;;;;;;5085562;28;20463;-60
2023/02/19 04:04:21;;;;;;;5.15;3.25;;;7.50;66.10;;;;;;5090913;28;20031;-61
2023/02/19 04:06:52;;;;;;;5.32;3.60;;;7.50;66.10;;;;;;5090151;28;20055;-60
2023/02/19 04:09:19;;;;;;;5.95;3.35;;;7.50;66.20;;;;;;5078603;28;20048;-61
2023/02/19 04:11:46;;;;;;;4.53;3.33;;;7.50;66.20;;;;;;5090764;28;20449;-61
2023/02/19 04:14:29;;;;;;;4.88;3.45;;;7.50;66.30;;;;;;5091753;28;20081;-61
2023/02/19 04:17:01;;;;;;;6.75;3.80;;;7.50;66.40;;;;;;5080869;28;20432;-61
2023/02/19 04:19:32;;;;;;;5.75;3.88;;;7.50;66.50;;;;;;5083756;28;20024;-61
2023/02/19 04:21:58;;;;;;;5.03;3.38;;;7.50;66.50;;;;;;5086260;28;20043;-61
2023/02/19 04:24:47;;;;;;;6.68;3.72;;;7.50;66.50;;;;;;5082003;28;20071;-61
2023/02/19 04:27:13;;;;;;;5.22;4.18;;;7.50;66.40;;;;;;5078458;28;20067;-60
2023/02/19 04:29:39;;;;;;;5.82;3.75;;;7.50;66.30;;;;;;5091709;28;20051;-59
2023/02/19 04:32:05;;;;;;;4.82;3.63;;;7.50;66.60;;;;;;5080462;28;20545;-60
2023/02/19 04:34:31;;;;;;;9.82;3.60;;;7.50;66.60;;;;;;5089082;28;20023;-58
2023/02/19 04:36:57;;;;;;;6.22;3.42;;;7.40;66.60;;;;;;5086390;28;20381;-59
2023/02/19 04:39:22;;;;;;;6.90;3.83;;;7.50;66.80;;;;;;5088056;28;20438;-59
2023/02/19 04:41:48;;;;;;;5.75;3.67;;;7.50;66.70;;;;;;5086813;28;20055;-61
2023/02/19 04:44:14;;;;;;;5.32;3.63;;;7.50;66.70;;;;;;5087603;28;20059;-61
2023/02/19 04:46:40;;;;;;;6.50;3.85;;;7.50;66.60;;;;;;5083941;28;20028;-61
2023/02/19 04:49:06;;;;;;;5.15;3.97;;;7.50;66.60;;;;;;5076652;28;20051;-61
2023/02/19 04:51:31;;;;;;;5.90;3.92;;;7.50;67.40;;;;;;5077261;28;20036;-59
2023/02/19 04:53:57;;;;;;;5.38;3.90;;;7.50;66.70;;;;;;5083355;28;20363;-59
2023/02/19 04:56:23;;;;;;;5.57;4.05;;;7.50;66.80;;;;;;5084223;28;20107;-61
2023/02/19 04:58:49;;;;;;;5.78;4.30;;;7.40;66.80;;;;;;5087147;28;20024;-61
2023/02/19 05:01:15;;;;;;;4.38;3.67;;;7.40;66.90;;;;;;5086150;28;20051;-61
2023/02/19 05:03:40;;;;;;;4.97;3.35;;;7.50;67.00;;;;;;5078273;28;20036;-61
2023/02/19 05:06:09;;;;;;;4.88;3.55;;;7.40;66.90;;;;;;5085596;28;20036;-61
2023/02/19 05:08:35;;;;;;;5.53;3.90;;;7.40;66.90;;;;;;5083763;28;20051;-61
2023/02/19 05:11:03;;;;;;;6.85;4.00;;;7.40;66.80;;;;;;5082536;28;20024;-61
2023/02/19 05:13:29;;;;;;;5.80;3.60;;;7.40;67.00;;;;;;5082943;28;20029;-61
2023/02/19 05:15:59;;;;;;;6.18;3.95;;;7.40;67.00;;;;;;5079761;28;20035;-61
2023/02/19 05:18:26;;;;;;;4.87;3.83;;;7.40;67.10;;;;;;5080770;28;20031;-61
2023/02/19 05:20:51;;;;;;;6.75;3.92;;;7.40;67.00;;;;;;5080388;28;20347;-61
2023/02/19 05:23:19;;;;;;;4.35;3.75;;;7.40;67.00;;;;;;5083703;28;20028;-61
2023/02/19 05:25:45;;;;;;;5.70;3.97;;;7.40;67.10;;;;;;5080317;28;20024;-61
2023/02/19 05:28:17;;;;;;;6.00;3.83;;;7.40;67.10;;;;;;5085245;28;20035;-61
2023/02/19 05:30:51;;;;;;;;;;;7.30;67.10;;;;;;5082052;28;20107;-61
2023/02/19 05:33:20;;;;;;;4.20;3.50;;;7.30;67.30;;;;;;5081607;28;19924;-61
2023/02/19 05:35:49;;;;;;;5.82;3.80;;;7.30;67.20;;;;;;5076987;28;20032;-61
2023/02/19 05:38:15;;;;;;;6.50;4.20;;;7.10;67.50;;;;;;5074164;28;20367;-61
2023/02/19 05:40:41;;;;;;;6.35;4.07;;;7.10;67.60;;;;;;5076408;28;20111;-61
2023/02/19 05:43:07;;;;;;;6.43;4.72;;;7.00;67.90;;;;;;5075928;28;20051;-61
2023/02/19 05:45:34;;;;;;;6.82;4.60;;;7.00;68.20;;;;;;5083218;28;20025;-61
2023/02/19 05:48:00;;;;;;;7.18;4.15;;;6.90;68.50;;;;;;5072268;28;20028;-60
2023/02/19 05:50:25;;;;;;;6.82;3.88;;;6.80;68.80;;;;;;5073097;28;20036;-61
2023/02/19 05:52:51;;;;;;;6.82;4.00;;;6.80;69.00;;;;;;5071925;28;20437;-61
2023/02/19 05:55:17;;;;;;;5.07;3.70;;;6.90;69.20;;;;;;5071659;28;20032;-59
2023/02/19 05:57:47;;;;;;;8.38;4.45;;;6.90;69.40;;;;;;5081351;28;20080;-62
2023/02/19 06:00:15;;;;;;;7.03;4.53;;;6.90;69.40;;;;;;5076940;28;20024;-61
2023/02/19 06:02:41;;;;;;;5.97;3.92;;;6.90;69.50;;;;;;5081161;28;20024;-60
2023/02/19 06:05:08;;;;;;;6.63;3.95;;;6.80;69.70;;;;;;5076782;28;20048;-60
2023/02/19 06:07:34;;;;;;;6.43;4.30;;;6.80;69.90;;;;;;5073019;28;20499;-62
2023/02/19 06:10:00;;;;;;;5.43;3.78;;;6.80;70.20;;;;;;5078557;28;20470;-61
2023/02/19 06:12:25;;;;;;;10.65;4.10;;;6.70;70.20;;;;;;5079489;28;20043;-61
2023/02/19 06:14:51;;;;;;;5.57;3.92;;;6.70;70.60;;;;;;5087938;28;20024;-62
2023/02/19 06:17:17;;;;;;;5.78;3.95;;;6.70;70.70;;;;;;5088869;28;20077;-60
2023/02/19 06:19:43;;;;;;;5.85;4.15;;;6.70;70.90;;;;;;5095364;28;20028;-61
2023/02/19 06:22:09;;;;;;;5.70;4.03;;;6.70;71.10;;;;;;5091580;28;20028;-61
2023/02/19 06:24:36;;;;;;;6.90;4.57;;;6.70;71.40;;;;;;5086319;28;20024;-58
2023/02/19 06:27:05;;;;;;;5.65;4.00;;;6.70;71.50;;;;;;5093101;28;20016;-61
2023/02/19 06:29:31;;;;;;;6.93;3.97;;;6.70;71.30;;;;;;5089169;28;20017;-61
2023/02/19 06:31:57;;;;;;;5.93;3.40;;;6.70;71.40;;;;;;5080940;28;20540;-60
2023/02/19 06:34:23;;;;;;;5.18;3.90;;;6.80;72.10;;;;;;5089605;28;20397;-61
2023/02/19 06:36:49;;;;;;;9.07;4.30;;;6.80;71.50;;;;;;5095095;28;20039;-61
2023/02/19 06:39:15;;;;;;;7.15;4.20;;;6.80;71.50;;;;;;5088719;28;20063;-60
2023/02/19 06:41:40;;;;;;;5.13;3.85;;;6.80;71.50;;;;;;5091292;28;20040;-60
2023/02/19 06:44:06;;;;;;;5.50;4.00;;;6.80;71.50;;;;;;5093809;28;20028;-55
2023/02/19 06:46:32;;;;;;;5.57;3.75;;;6.80;71.50;;;;;;5094224;28;20039;-61
2023/02/19 06:48:58;;;;;;;7.18;4.20;;;6.90;71.60;;;;;;5086351;28;20121;-61
2023/02/19 06:51:26;;;;;;;4.57;3.70;;;6.90;71.50;;;;;;5093264;28;20470;-59
2023/02/19 06:53:52;;;;;;;7.03;4.13;;;6.90;71.40;;;;;;5095557;28;20229;-61
2023/02/19 06:56:26;;;;;;;6.20;3.90;;;7.00;71.30;;;;;;5091212;28;20071;-61
2023/02/19 06:58:54;;;;;;;9.65;3.42;;;7.00;71.10;;;;;;5097221;28;20445;-63
2023/02/19 07:01:20;;;;;;;5.13;3.67;;;7.00;70.80;;;;;;5090591;28;20103;-61
2023/02/19 07:03:46;;;;;;;6.32;3.80;;;7.10;70.80;;;;;;5095224;28;20096;-61
2023/02/19 07:06:12;;;;;;;5.30;4.00;;;7.10;70.60;;;;;;5092268;28;20028;-60
2023/02/19 07:08:37;;;;;;;5.95;3.83;;;7.10;70.50;;;;;;5087923;28;20048;-62
2023/02/19 07:11:03;;;;;;;6.25;4.07;;;7.10;70.60;;;;;;5090718;28;20032;-61
2023/02/19 07:13:29;;;;;;;6.40;4.18;;;7.10;70.50;;;;;;5085969;28;20046;-60
2023/02/19 07:16:04;;;;;;;6.45;4.00;;;7.10;70.40;;;;;;5093893;28;20077;-60
2023/02/19 07:18:30;;;;;;;7.28;3.60;;;7.10;70.40;;;;;;5086603;28;20043;-62
2023/02/19 07:21:06;;;;;;;5.80;3.60;;;7.00;70.40;;;;;;5088174;28;20031;-60
2023/02/19 07:23:31;;;;;;;5.80;3.92;;;7.10;70.40;;;;;;5092629;28;20394;-60
2023/02/19 07:25:57;;;;;;;6.85;4.22;;;7.10;70.60;;;;;;5091374;28;20038;-60
2023/02/19 07:28:23;;;;;;;5.20;3.83;;;7.10;70.50;;;;;;5069416;28;20059;-60
2023/02/19 07:30:49;;;;;;;6.32;4.18;;;7.10;70.40;;;;;;5082265;28;20032;-61
2023/02/19 07:33:15;;;;;;;5.88;3.97;;;7.10;70.20;;;;;;5077260;28;20039;-61
2023/02/19 07:35:48;;;;;;;8.15;3.78;;;7.10;70.20;;;;;;5068939;28;20024;-61
2023/02/19 07:38:16;;;;;;;6.53;4.30;;;7.10;70.20;;;;;;5081138;28;20470;-61
2023/02/19 07:40:41;;;;;;;6.60;4.18;;;7.00;70.30;;;;;;5090105;28;20047;-61
2023/02/19 07:43:07;;;;;;;6.68;4.00;;;7.00;70.20;;;;;;5085820;28;20020;-60
2023/02/19 07:45:32;;;;;;;6.70;4.03;;;7.00;70.10;;;;;;5082770;28;20035;-60
2023/02/19 07:47:58;;;;;;;5.88;3.65;;;7.00;69.70;;;;;;5082147;28;20034;-58
2023/02/19 07:50:24;;;;;;;7.03;3.83;;;7.00;69.30;;;;;;5079911;28;20028;-61
2023/02/19 07:52:49;;;;;;;4.80;3.78;;;6.90;68.90;;;;;;5082990;28;20058;-59
2023/02/19 07:55:15;;;;;;;6.07;3.60;;;6.90;68.80;;;;;;5092303;28;20060;-61
2023/02/19 07:57:40;;;;;;;5.68;3.60;;;7.00;69.00;;;;;;5079806;28;20035;-61
2023/02/19 08:00:06;;;;;;;6.60;3.80;;;7.00;69.00;;;;;;5082795;28;20035;-61
2023/02/19 08:05:16;;;;;;;4.85;3.30;;;7.00;68.50;;;;;;5082077;28;20027;-60
2023/02/19 08:07:42;;;;;;;6.07;3.70;;;7.00;68.70;;;;;;5078703;28;20052;-60
2023/02/19 08:13:21;;;;;;;5.68;3.42;;;6.90;67.50;;;;;;5078800;28;20068;-60
2023/02/19 08:15:46;;;;;;;4.28;2.90;;;6.90;66.70;;;;;;5080389;28;20399;-61
2023/02/19 08:18:12;;;;;;;5.43;2.95;;;6.90;66.50;;;;;;5091282;28;20021;-61
2023/02/19 08:20:38;;;;;;;6.53;3.22;;;6.90;66.20;;;;;;5079132;28;20027;-61
2023/02/19 08:23:04;;;;;;;6.85;3.50;;;6.90;66.10;;;;;;5075287;28;20033;-62
2023/02/19 08:25:30;;;;;;;5.47;3.35;;;6.90;66.00;;;;;;5077301;28;20055;-60
2023/02/19 08:27:56;;;;;;;6.32;3.85;;;6.90;66.40;;;;;;5083208;28;20542;-60
2023/02/19 08:30:22;;;;;;;5.47;3.10;;;6.90;66.40;;;;;;5086214;28;20037;-60
2023/02/19 08:32:48;;;;;;;4.70;2.90;;;6.90;66.50;;;;;;5074714;28;20040;-60
2023/02/19 08:35:13;;;;;;;5.10;2.90;;;6.90;66.30;;;;;;5078782;28;20469;-61
2023/02/19 08:37:39;;;;;;;5.47;2.78;;;6.90;66.10;;;;;;5086794;28;20030;-63
2023/02/19 08:40:04;;;;;;;4.72;2.60;;;6.90;66.00;;;;;;5086703;28;20055;-64
2023/02/19 08:42:30;;;;;;;4.38;2.90;;;6.90;65.80;;;;;;5074786;28;20094;-62
2023/02/19 08:44:56;;;;;;;6.18;2.90;;;6.80;65.70;;;;;;5080588;28;20470;-62
2023/02/19 08:47:21;;;;;;;4.00;2.67;;;6.80;65.90;;;;;;5075600;28;20028;-65
2023/02/19 08:49:47;;;;;;;5.15;2.72;;;6.90;65.80;;;;;;5074315;28;20448;-62
2023/02/19 08:52:13;;;;;;;4.82;3.00;;;6.90;65.70;;;;;;5074866;28;20029;-63
2023/02/19 08:54:38;;;;;;;4.80;3.28;;;6.90;65.50;;;;;;5084248;28;20058;-62
2023/02/19 08:57:04;;;;;;;5.28;3.10;;;6.90;65.40;;;;;;5078696;28;20047;-63
2023/02/19 08:59:30;;;;;;;4.45;2.88;;;6.90;65.20;;;;;;5088575;28;20032;-64
2023/02/19 09:01:58;;;;;;;4.93;2.95;;;7.00;65.20;;;;;;5084417;28;20028;-62
2023/02/19 09:04:23;;;;;;;4.97;3.00;;;7.00;64.30;;;;;;5082947;28;20036;-64
2023/02/19 09:06:49;;;;;;;5.55;2.97;;;7.10;64.20;;;;;;5084878;28;20482;-64
2023/02/19 09:09:15;;;;;;;5.10;3.20;;;7.10;64.00;;;;;;5085400;28;20494;-64
2023/02/19 09:11:41;;;;;;;4.60;2.90;;;7.10;63.30;;;;;;5086159;28;20466;-61
2023/02/19 09:14:07;;;;;;;5.10;3.50;;;7.10;63.50;;;;;;5073067;28;20072;-65
2023/02/19 09:16:36;;;;;;;8.18;4.55;;;7.10;63.30;;;;;;5085356;28;20020;-63
2023/02/19 09:19:02;;;;;;;5.75;3.40;;;7.10;63.70;;;;;;5072332;28;20260;-65
2023/02/19 09:21:28;;;;;;;5.18;3.80;;;7.00;64.00;;;;;;5084214;28;20036;-63
2023/02/19 09:23:53;;;;;;;6.10;3.40;;;7.00;64.20;;;;;;5082911;28;20043;-64
2023/02/19 09:26:19;;;;;;;6.55;3.65;;;7.00;64.50;;;;;;5076398;28;20031;-64
2023/02/19 09:28:45;;;;;;;4.85;3.50;;;7.00;64.50;;;;;;5077203;28;20032;-65
2023/02/19 09:31:13;;;;;;;5.32;3.10;;;7.00;64.80;;;;;;5075480;28;20130;-64
2023/02/19 09:33:47;;;;;;;3.42;2.92;;;7.10;65.20;;;;;;5074247;28;20155;-63
2023/02/19 09:36:14;;;;;;;3.70;3.17;;;7.10;65.20;;;;;;5074655;28;20032;-64
2023/02/19 09:38:40;;;;;;;5.85;3.05;;;7.20;65.10;;;;;;5074613;28;20486;-63
2023/02/19 09:41:13;;;;;;;5.47;3.45;;;7.20;64.70;;;;;;5074115;28;20455;-64
2023/02/19 09:43:39;;;;;;;6.22;3.58;;;7.30;64.10;;;;;;5074297;28;20082;-64
2023/02/19 09:46:30;;;;;;;5.43;3.60;;;7.40;63.90;;;;;;5074421;28;20028;-63
2023/02/19 09:49:12;;;;;;;6.28;3.80;;;7.50;63.90;;;;;;5073978;28;20065;-64
2023/02/19 09:51:42;;;;;;;7.03;3.40;;;7.60;64.00;;;;;;5074423;28;20600;-64
2023/02/19 09:54:21;;;;;;;5.80;3.15;;;7.70;63.70;;;;;;5073795;28;20460;-65
2023/02/19 09:56:47;;;;;;;6.22;3.40;;;7.80;63.50;;;;;;5074042;28;20105;-65
2023/02/19 09:59:23;;;;;;;5.18;3.60;;;7.90;63.60;;;;;;5073767;28;20091;-65
2023/02/19 10:01:56;;;;;;;4.85;3.22;;;8.00;63.60;;;;;;5073888;28;20086;-64
2023/02/19 10:04:22;;;;;;;4.82;3.50;;;8.00;63.40;;;;;;5074367;28;20481;-64
2023/02/19 10:06:48;;;;;;;5.68;3.40;;;8.10;63.30;;;;;;5074533;28;20024;-64
2023/02/19 10:09:17;;;;;;;5.97;3.35;;;8.10;63.60;;;;;;5074625;28;20425;-64
2023/02/19 10:11:43;;;;;;;7.80;3.78;;;8.10;63.50;;;;;;5074383;28;20029;-64
2023/02/19 10:14:18;;;;;;;4.05;3.20;;;8.10;63.40;;;;;;5074378;28;20043;-63
2023/02/19 10:16:47;;;;;;;6.82;3.60;;;8.10;63.60;;;;;;5074163;28;20033;-63
2023/02/19 10:19:13;;;;;;;5.45;3.55;;;8.10;63.20;;;;;;5073638;28;20111;-64
2023/02/19 10:21:38;;;;;;;6.28;3.15;;;8.20;62.90;;;;;;5074225;28;20028;-59
2023/02/19 10:24:07;;;;;;;4.63;3.30;;;8.20;63.00;;;;;;5074026;28;20108;-62
2023/02/19 10:26:35;;;;;;;4.60;3.35;;;8.30;62.20;;;;;;5073802;28;20375;-59
2023/02/19 10:29:04;;;;;;;3.97;3.00;;;8.20;61.60;;;;;;5073819;28;20035;-60
2023/02/19 10:31:32;;;;;;;6.00;3.25;;;8.30;61.80;;;;;;5073842;28;20029;-60
2023/02/19 10:34:00;;;;;;;5.00;3.30;;;8.30;62.00;;;;;;5073430;28;20029;-60
2023/02/19 10:36:39;;;;;;;5.32;3.35;;;8.30;61.30;;;;;;5073769;28;20025;-61
2023/02/19 10:39:37;;;;;;;4.82;3.10;;;8.30;60.30;;;;;;5073929;28;20517;-60
2023/02/19 10:42:03;;;;;;;4.85;3.10;;;8.30;60.00;;;;;;5073261;28;20078;-60
2023/02/19 10:44:37;;;;;;;5.78;3.05;;;8.20;60.10;;;;;;5073713;28;20028;-60
2023/02/19 10:47:03;;;;;;;4.07;2.83;;;8.20;59.80;;;;;;5073560;28;20095;-60
2023/02/19 10:49:31;;;;;;;5.88;3.15;;;8.20;60.40;;;;;;5073906;28;20025;-59
2023/02/19 10:52:04;;;;;;;3.88;2.40;;;8.20;59.20;;;;;;5073766;28;20107;-58
2023/02/19 10:54:34;;;;;;;5.57;2.58;;;8.30;60.00;;;;;;5073502;28;20032;-59
2023/02/19 10:57:18;;;;;;;5.40;2.95;;;8.30;59.50;;;;;;5073611;28;20470;-60
2023/02/19 10:59:51;;;;;;;4.80;2.97;;;8.40;59.90;;;;;;5073656;28;20029;-60
2023/02/19 11:02:20;;;;;;;3.92;2.92;;;8.40;59.30;;;;;;5073632;28;20515;-61
2023/02/19 11:05:05;;;;;;;5.53;3.13;;;8.40;59.10;;;;;;5075009;28;20067;-60
2023/02/19 11:07:31;;;;;;;4.20;3.00;;;8.50;59.20;;;;;;5077239;28;20053;-53
2023/02/19 11:09:58;;;;;;;7.07;3.00;;;8.40;58.80;;;;;;5077495;28;20035;-54
2023/02/19 11:12:27;;;;;;;4.70;3.00;;;8.50;58.80;;;;;;5077393;28;20031;-63
2023/02/19 11:14:53;;;;;;;3.60;2.85;;;8.50;58.40;;;;;;5077386;28;20067;-63
2023/02/19 11:17:24;;;;;;;4.45;3.05;;;8.50;57.90;;;;;;5077227;28;20451;-63
2023/02/19 11:19:54;;;;;;;;;;;8.50;57.00;;;;;;5077490;28;20024;-63
2023/02/19 11:22:30;;;;;;;4.43;2.97;;;8.40;56.80;;;;;;5076998;28;19937;-62
2023/02/19 11:25:00;;;;;;;6.50;3.00;;;8.40;57.20;;;;;;5077068;28;20058;-63
2023/02/19 11:27:26;;;;;;;3.10;2.60;;;8.40;57.40;;;;;;5076951;28;20029;-54
2023/02/19 11:29:52;;;;;;;4.13;2.80;;;8.40;57.50;;;;;;5076174;28;20052;-55
2023/02/19 11:32:26;;;;;;;5.43;3.30;;;8.40;57.60;;;;;;5076882;28;20027;-62
2023/02/19 11:35:22;;;;;;;6.07;3.28;;;8.30;57.60;;;;;;5076823;28;20390;-62
2023/02/19 11:37:59;;;;;;;3.88;2.83;;;8.30;57.70;;;;;;5076680;28;20034;-62
2023/02/19 11:40:58;;;;;;;4.65;3.00;;;8.30;58.20;;;;;;5076824;28;20115;-62
2023/02/19 11:43:45;;;;;;;5.35;3.10;;;8.30;58.50;;;;;;5076742;28;20455;-62
2023/02/19 11:46:39;;;;;;;5.80;3.20;;;8.30;58.50;;;;;;5076412;28;20028;-62
2023/02/19 11:49:17;;;;;;;5.05;3.20;;;8.30;58.90;;;;;;5047887;28;20478;-62
2023/02/19 11:51:50;;;;;;;4.85;3.17;;;8.20;57.90;;;;;;5076163;28;20044;-62
2023/02/19 11:54:50;;;;;;;5.82;3.30;;;8.20;57.80;;;;;;5076442;28;20049;-62
2023/02/19 11:57:46;;;;;;;5.38;2.97;;;8.20;58.20;;;;;;5076558;28;20447;-62
2023/02/19 12:00:21;;;;;;;4.20;2.72;;;8.20;58.30;;;;;;5075969;28;20127;-61
2023/02/19 12:03:05;;;;;;;4.95;3.15;;;8.20;58.70;;;;;;5076374;28;20535;-62
2023/02/19 12:05:44;;;;;;;4.68;3.08;;;8.10;58.90;;;;;;5076161;28;20520;-61
2023/02/19 12:08:27;;;;;;;4.00;3.00;;;8.20;59.00;;;;;;5076536;28;20048;-62
2023/02/19 12:10:55;;;;;;;3.05;2.75;;;8.20;59.10;;;;;;5075553;28;20414;-62
2023/02/19 12:13:43;;;;;;;5.85;3.55;;;8.20;59.10;;;;;;5076182;28;20032;-63
2023/02/19 12:16:29;;;;;;;3.83;2.78;;;8.30;59.30;;;;;;5075271;28;20028;-60
2023/02/19 12:19:23;;;;;;;5.68;3.25;;;8.30;59.30;;;;;;5076343;28;20035;-60
2023/02/19 12:22:07;;;;;;;4.50;3.00;;;8.30;59.10;;;;;;5076045;28;20375;-60
2023/02/19 12:24:52;;;;;;;6.97;3.10;;;8.20;58.90;;;;;;5076362;28;20037;-60
2023/02/19 12:27:24;;;;;;;6.15;2.92;;;8.20;59.10;;;;;;5076235;28;20024;-61
2023/02/19 12:30:47;;;;;;;4.90;3.10;;;8.10;58.80;;;;;;5075625;28;20024;-60
2023/02/19 12:33:20;;;;;;;7.00;3.10;;;8.00;58.70;;;;;;5013200;28;20048;-60
2023/02/19 12:36:04;;;;;;;4.55;3.40;;;8.00;59.00;;;;;;5013798;28;20022;-61
2023/02/19 12:38:34;;;;;;;3.35;2.90;;;8.00;59.20;;;;;;5052889;28;20032;-61
2023/02/19 12:41:26;;;;;;;7.00;3.30;;;7.90;59.10;;;;;;5075395;28;20025;-61
2023/02/19 12:44:00;;;;;;;8.13;3.33;;;7.80;58.90;;;;;;5075939;28;20107;-61
2023/02/19 12:46:51;;;;;;;4.97;3.10;;;7.80;59.10;;;;;;5075373;28;20028;-60
2023/02/19 12:49:35;;;;;;;4.55;3.30;;;7.70;59.00;;;;;;5075524;28;20115;-61
2023/02/19 12:52:08;;;;;;;4.65;2.80;;;7.70;59.90;;;;;;5075442;28;20052;-61
2023/02/19 12:54:39;;;;;;;4.63;3.35;;;7.70;59.60;;;;;;5075866;28;20048;-61
2023/02/19 12:57:07;;;;;;;5.40;3.08;;;7.80;59.70;;;;;;5075601;28;20355;-61
2023/02/19 12:59:46;;;;;;;8.90;3.30;;;7.80;59.50;;;;;;5075121;28;20032;-60
2023/02/19 13:02:37;;;;;;;5.55;3.00;;;7.80;59.20;;;;;;5074954;28;20037;-61
2023/02/19 13:05:26;;;;;;;3.63;2.53;;;7.80;59.00;;;;;;5074952;28;20032;-61
2023/02/19 13:08:05;;;;;;;5.90;2.97;;;7.80;59.10;;;;;;5074668;28;20131;-55
2023/02/19 13:10:43;;;;;;;3.90;2.75;;;7.80;59.00;;;;;;5075172;28;20202;-59
2023/02/19 13:13:22;;;;;;;4.10;2.85;;;7.80;58.50;;;;;;5074603;28;20060;-59
2023/02/19 13:15:52;;;;;;;3.20;2.70;;;7.80;58.20;;;;;;5074884;28;20125;-59
2023/02/19 13:18:28;;;;;;;5.13;3.17;;;7.80;58.20;;;;;;5074918;28;20482;-60
2023/02/19 13:20:55;;;;;;;5.05;2.55;;;7.80;58.30;;;;;;5074404;28;20025;-59
2023/02/19 13:27:05;;;;;;;4.32;2.65;;;7.90;58.00;;;;;;5074304;28;20031;-59
2023/02/19 13:29:51;;;;;;;5.15;3.17;;;7.90;57.60;;;;;;5046597;28;20119;-59
2023/02/19 13:32:38;;;;;;;4.50;2.97;;;7.90;57.90;;;;;;5074354;28;20447;-59
2023/02/19 13:35:22;;;;;;;4.13;2.70;;;7.90;58.00;;;;;;5074016;28;20463;-59
2023/02/19 13:37:49;;;;;;;4.55;2.95;;;8.00;57.90;;;;;;5074664;28;20021;-60
2023/02/19 13:40:29;;;;;;;4.78;3.00;;;8.00;58.00;;;;;;5074830;28;20055;-60
2023/02/19 13:42:56;;;;;;;6.32;3.30;;;7.90;57.90;;;;;;5074518;28;20459;-55
2023/02/19 13:45:38;;;;;;;5.43;3.15;;;7.90;57.80;;;;;;5073718;28;20028;-63